sensor_id;sensor_type;location;lat;lon;timestamp;P1;durP1;ratioP1;P2;durP2;ratioP2
17812;SDS011;9030;50.792;8.320;2023-08-30T00:00:47;17.40;;;11.50;;
17812;SDS011;9030;50.792;8.320;2023-08-30T00:03:13;15.03;;;11.80;;
17812;SDS011;9030;50.792;8.320;2023-08-30T00:05:40;19.40;;;12.07;;
17812;SDS011;9030;50.792;8.320;2023-08-30T00:08:07;15.20;;;10.43;;
17812;SDS011;9030;50.792;8.320;2023-08-30T00:10:34;17.10;;;11.82;;
17812;SDS011;9030;50.792;8.320;2023-08-30T00:13:03;14.90;;;11.88;;
17812;SDS011;9030;50.792;8.320;2023-08-30T00:15:31;15.73;;;10.38;;
17812;SDS011;9030;50.792;8.320;2023-08-30T00:17:58;14.60;;;9.40;;
17812;SDS011;9030;50.792;8.320;2023-08-30T00:20:24;13.85;;;10.57;;
17812;SDS011;9030;50.792;8.320;2023-08-30T00:22:51;12.35;;;9.32;;
17812;SDS011;9030;50.792;8.320;2023-08-30T00:25:17;13.20;;;9.43;;
17812;SDS011;9030;50.792;8.320;2023-08-30T00:27:44;12.38;;;9.02;;
17812;SDS011;9030;50.792;8.320;2023-08-30T00:30:11;13.85;;;8.95;;
17812;SDS011;9030;50.792;8.320;2023-08-30T00:32:40;17.10;;;10.25;;
17812;SDS011;9030;50.792;8.320;2023-08-30T00:35:06;11.57;;;8.53;;
17812;SDS011;9030;50.792;8.320;2023-08-30T00:37:34;12.80;;;9.63;;
17812;SDS011;9030;50.792;8.320;2023-08-30T00:40:01;16.38;;;10.65;;
17812;SDS011;9030;50.792;8.320;2023-08-30T00:42:28;14.02;;;10.40;;
17812;SDS011;9030;50.792;8.320;2023-08-30T00:44:54;13.15;;;9.60;;
17812;SDS011;9030;50.792;8.320;2023-08-30T00:47:21;13.52;;;8.75;;
17812;SDS011;9030;50.792;8.320;2023-08-30T00:49:49;14.57;;;8.90;;
17812;SDS011;9030;50.792;8.320;2023-08-30T00:52:16;11.57;;;8.95;;
17812;SDS011;9030;50.792;8.320;2023-08-30T00:54:43;11.10;;;8.50;;
17812;SDS011;9030;50.792;8.320;2023-08-30T00:57:10;16.27;;;11.10;;
17812;SDS011;9030;50.792;8.320;2023-08-30T00:59:38;15.37;;;9.67;;
17812;SDS011;9030;50.792;8.320;2023-08-30T01:02:05;14.00;;;9.13;;
17812;SDS011;9030;50.792;8.320;2023-08-30T01:04:31;11.38;;;8.63;;
17812;SDS011;9030;50.792;8.320;2023-08-30T01:07:00;15.23;;;10.80;;
17812;SDS011;9030;50.792;8.320;2023-08-30T01:09:26;14.10;;;10.82;;
17812;SDS011;9030;50.792;8.320;2023-08-30T01:11:55;14.45;;;10.57;;
17812;SDS011;9030;50.792;8.320;2023-08-30T01:14:29;14.50;;;10.48;;
17812;SDS011;9030;50.792;8.320;2023-08-30T01:17:01;12.27;;;9.27;;
17812;SDS011;9030;50.792;8.320;2023-08-30T01:19:33;15.07;;;10.63;;
17812;SDS011;9030;50.792;8.320;2023-08-30T01:22:11;12.60;;;9.77;;
17812;SDS011;9030;50.792;8.320;2023-08-30T01:24:44;12.00;;;8.95;;
17812;SDS011;9030;50.792;8.320;2023-08-30T01:27:21;15.40;;;12.23;;
17812;SDS011;9030;50.792;8.320;2023-08-30T01:29:51;14.80;;;10.05;;
17812;SDS011;9030;50.792;8.320;2023-08-30T01:32:20;16.08;;;9.90;;
17812;SDS011;9030;50.792;8.320;2023-08-30T01:34:50;14.65;;;11.25;;
17812;SDS011;9030;50.792;8.320;2023-08-30T01:37:17;13.90;;;10.88;;
17812;SDS011;9030;50.792;8.320;2023-08-30T01:39:45;14.57;;;11.23;;
17812;SDS011;9030;50.792;8.320;2023-08-30T01:42:12;12.63;;;9.45;;
17812;SDS011;9030;50.792;8.320;2023-08-30T01:44:44;12.85;;;8.25;;
17812;SDS011;9030;50.792;8.320;2023-08-30T01:47:11;13.07;;;10.27;;
17812;SDS011;9030;50.792;8.320;2023-08-30T01:49:38;13.82;;;9.88;;
17812;SDS011;9030;50.792;8.320;2023-08-30T01:52:05;11.60;;;7.90;;
17812;SDS011;9030;50.792;8.320;2023-08-30T01:54:32;13.57;;;9.80;;
17812;SDS011;9030;50.792;8.320;2023-08-30T01:56:59;11.95;;;9.00;;
17812;SDS011;9030;50.792;8.320;2023-08-30T01:59:26;10.52;;;8.20;;
17812;SDS011;9030;50.792;8.320;2023-08-30T02:01:54;11.07;;;8.15;;
17812;SDS011;9030;50.792;8.320;2023-08-30T02:04:21;13.40;;;8.35;;
17812;SDS011;9030;50.792;8.320;2023-08-30T02:06:48;12.00;;;7.57;;
17812;SDS011;9030;50.792;8.320;2023-08-30T02:09:22;11.35;;;9.10;;
17812;SDS011;9030;50.792;8.320;2023-08-30T02:11:52;13.55;;;8.70;;
17812;SDS011;9030;50.792;8.320;2023-08-30T02:14:21;11.40;;;8.13;;
17812;SDS011;9030;50.792;8.320;2023-08-30T02:16:49;15.13;;;10.05;;
17812;SDS011;9030;50.792;8.320;2023-08-30T02:19:18;15.97;;;10.63;;
17812;SDS011;9030;50.792;8.320;2023-08-30T02:21:46;11.77;;;8.73;;
17812;SDS011;9030;50.792;8.320;2023-08-30T02:24:12;12.98;;;9.82;;
17812;SDS011;9030;50.792;8.320;2023-08-30T02:26:39;13.60;;;10.20;;
17812;SDS011;9030;50.792;8.320;2023-08-30T02:29:06;11.20;;;8.60;;
17812;SDS011;9030;50.792;8.320;2023-08-30T02:31:33;12.50;;;9.23;;
17812;SDS011;9030;50.792;8.320;2023-08-30T02:34:00;11.57;;;8.48;;
17812;SDS011;9030;50.792;8.320;2023-08-30T02:36:28;10.50;;;8.00;;
17812;SDS011;9030;50.792;8.320;2023-08-30T02:38:55;12.57;;;9.50;;
17812;SDS011;9030;50.792;8.320;2023-08-30T02:41:22;11.02;;;8.10;;
17812;SDS011;9030;50.792;8.320;2023-08-30T02:43:48;11.40;;;8.02;;
17812;SDS011;9030;50.792;8.320;2023-08-30T02:46:15;11.13;;;9.13;;
17812;SDS011;9030;50.792;8.320;2023-08-30T02:48:42;12.95;;;8.40;;
17812;SDS011;9030;50.792;8.320;2023-08-30T02:51:08;13.43;;;9.82;;
17812;SDS011;9030;50.792;8.320;2023-08-30T02:53:36;13.25;;;7.18;;
17812;SDS011;9030;50.792;8.320;2023-08-30T02:56:03;13.35;;;8.07;;
17812;SDS011;9030;50.792;8.320;2023-08-30T02:58:29;11.55;;;7.72;;
17812;SDS011;9030;50.792;8.320;2023-08-30T03:00:56;13.57;;;9.73;;
17812;SDS011;9030;50.792;8.320;2023-08-30T03:03:23;11.15;;;8.70;;
17812;SDS011;9030;50.792;8.320;2023-08-30T03:05:49;14.67;;;10.00;;
17812;SDS011;9030;50.792;8.320;2023-08-30T03:08:16;12.40;;;10.07;;
17812;SDS011;9030;50.792;8.320;2023-08-30T03:10:44;16.70;;;11.50;;
17812;SDS011;9030;50.792;8.320;2023-08-30T03:13:11;14.30;;;9.83;;
17812;SDS011;9030;50.792;8.320;2023-08-30T03:15:37;14.50;;;8.87;;
17812;SDS011;9030;50.792;8.320;2023-08-30T03:18:04;12.85;;;9.75;;
17812;SDS011;9030;50.792;8.320;2023-08-30T03:20:31;14.35;;;9.55;;
17812;SDS011;9030;50.792;8.320;2023-08-30T03:22:58;12.07;;;8.50;;
17812;SDS011;9030;50.792;8.320;2023-08-30T03:25:28;14.90;;;11.50;;
17812;SDS011;9030;50.792;8.320;2023-08-30T03:27:56;15.70;;;12.90;;
17812;SDS011;9030;50.792;8.320;2023-08-30T03:30:23;15.75;;;13.57;;
17812;SDS011;9030;50.792;8.320;2023-08-30T03:32:49;15.70;;;11.50;;
17812;SDS011;9030;50.792;8.320;2023-08-30T03:35:16;15.73;;;12.43;;
17812;SDS011;9030;50.792;8.320;2023-08-30T03:37:45;13.80;;;11.20;;
17812;SDS011;9030;50.792;8.320;2023-08-30T03:40:12;12.10;;;9.70;;
17812;SDS011;9030;50.792;8.320;2023-08-30T03:42:38;20.67;;;11.65;;
17812;SDS011;9030;50.792;8.320;2023-08-30T03:45:07;13.90;;;10.63;;
17812;SDS011;9030;50.792;8.320;2023-08-30T03:47:34;12.60;;;8.10;;
17812;SDS011;9030;50.792;8.320;2023-08-30T03:50:01;12.90;;;9.67;;
17812;SDS011;9030;50.792;8.320;2023-08-30T03:52:28;15.10;;;11.00;;
17812;SDS011;9030;50.792;8.320;2023-08-30T03:54:55;13.20;;;10.30;;
17812;SDS011;9030;50.792;8.320;2023-08-30T03:57:21;17.20;;;12.60;;
17812;SDS011;9030;50.792;8.320;2023-08-30T03:59:48;17.30;;;10.40;;
17812;SDS011;9030;50.792;8.320;2023-08-30T04:02:16;17.83;;;10.60;;
17812;SDS011;9030;50.792;8.320;2023-08-30T04:04:43;12.63;;;8.67;;
17812;SDS011;9030;50.792;8.320;2023-08-30T04:07:12;12.00;;;8.73;;
17812;SDS011;9030;50.792;8.320;2023-08-30T04:09:39;15.50;;;9.60;;
17812;SDS011;9030;50.792;8.320;2023-08-30T04:12:06;18.17;;;9.60;;
17812;SDS011;9030;50.792;8.320;2023-08-30T04:14:33;15.40;;;12.20;;
17812;SDS011;9030;50.792;8.320;2023-08-30T04:16:59;11.90;;;9.00;;
17812;SDS011;9030;50.792;8.320;2023-08-30T04:19:28;13.77;;;8.33;;
17812;SDS011;9030;50.792;8.320;2023-08-30T04:21:55;11.40;;;9.80;;
17812;SDS011;9030;50.792;8.320;2023-08-30T04:24:22;14.13;;;8.70;;
17812;SDS011;9030;50.792;8.320;2023-08-30T04:26:49;20.20;;;12.87;;
17812;SDS011;9030;50.792;8.320;2023-08-30T04:29:18;16.23;;;10.67;;
17812;SDS011;9030;50.792;8.320;2023-08-30T04:31:44;14.10;;;10.17;;
17812;SDS011;9030;50.792;8.320;2023-08-30T04:34:11;23.40;;;11.93;;
17812;SDS011;9030;50.792;8.320;2023-08-30T04:36:39;16.20;;;12.33;;
17812;SDS011;9030;50.792;8.320;2023-08-30T04:39:06;17.73;;;13.47;;
17812;SDS011;9030;50.792;8.320;2023-08-30T04:41:32;20.70;;;14.97;;
17812;SDS011;9030;50.792;8.320;2023-08-30T04:43:59;17.47;;;13.90;;
17812;SDS011;9030;50.792;8.320;2023-08-30T04:46:26;14.93;;;11.17;;
17812;SDS011;9030;50.792;8.320;2023-08-30T04:48:53;16.70;;;13.93;;
17812;SDS011;9030;50.792;8.320;2023-08-30T04:51:19;15.93;;;11.85;;
17812;SDS011;9030;50.792;8.320;2023-08-30T04:53:47;17.88;;;11.57;;
17812;SDS011;9030;50.792;8.320;2023-08-30T04:56:14;15.37;;;12.10;;
17812;SDS011;9030;50.792;8.320;2023-08-30T04:58:43;20.20;;;12.43;;
17812;SDS011;9030;50.792;8.320;2023-08-30T05:01:09;16.80;;;10.33;;
17812;SDS011;9030;50.792;8.320;2023-08-30T05:03:38;15.15;;;11.75;;
17812;SDS011;9030;50.792;8.320;2023-08-30T05:06:04;16.00;;;11.98;;
17812;SDS011;9030;50.792;8.320;2023-08-30T05:08:31;17.95;;;13.50;;
17812;SDS011;9030;50.792;8.320;2023-08-30T05:10:59;20.63;;;15.63;;
17812;SDS011;9030;50.792;8.320;2023-08-30T05:13:26;17.03;;;14.70;;
17812;SDS011;9030;50.792;8.320;2023-08-30T05:15:52;20.77;;;15.00;;
17812;SDS011;9030;50.792;8.320;2023-08-30T05:18:19;16.33;;;14.10;;
17812;SDS011;9030;50.792;8.320;2023-08-30T05:20:46;18.60;;;12.80;;
17812;SDS011;9030;50.792;8.320;2023-08-30T05:23:12;18.70;;;11.55;;
17812;SDS011;9030;50.792;8.320;2023-08-30T05:25:39;18.35;;;9.50;;
17812;SDS011;9030;50.792;8.320;2023-08-30T05:28:07;17.27;;;12.30;;
17812;SDS011;9030;50.792;8.320;2023-08-30T05:30:34;15.40;;;11.77;;
17812;SDS011;9030;50.792;8.320;2023-08-30T05:33:01;16.30;;;12.75;;
17812;SDS011;9030;50.792;8.320;2023-08-30T05:35:27;19.80;;;12.73;;
17812;SDS011;9030;50.792;8.320;2023-08-30T05:37:54;18.53;;;12.37;;
17812;SDS011;9030;50.792;8.320;2023-08-30T05:40:21;16.33;;;12.95;;
17812;SDS011;9030;50.792;8.320;2023-08-30T05:42:48;15.52;;;13.55;;
17812;SDS011;9030;50.792;8.320;2023-08-30T05:45:16;16.58;;;12.82;;
17812;SDS011;9030;50.792;8.320;2023-08-30T05:47:43;15.17;;;13.37;;
17812;SDS011;9030;50.792;8.320;2023-08-30T05:50:10;16.73;;;12.15;;
17812;SDS011;9030;50.792;8.320;2023-08-30T05:52:36;15.77;;;13.00;;
17812;SDS011;9030;50.792;8.320;2023-08-30T05:55:06;13.88;;;12.05;;
17812;SDS011;9030;50.792;8.320;2023-08-30T05:57:33;17.98;;;13.05;;
17812;SDS011;9030;50.792;8.320;2023-08-30T06:00:00;16.38;;;12.07;;
17812;SDS011;9030;50.792;8.320;2023-08-30T06:02:28;21.08;;;12.70;;
17812;SDS011;9030;50.792;8.320;2023-08-30T06:04:55;15.67;;;13.93;;
17812;SDS011;9030;50.792;8.320;2023-08-30T06:07:21;21.67;;;13.43;;
17812;SDS011;9030;50.792;8.320;2023-08-30T06:09:48;17.38;;;14.55;;
17812;SDS011;9030;50.792;8.320;2023-08-30T06:12:15;16.50;;;14.70;;
17812;SDS011;9030;50.792;8.320;2023-08-30T06:14:42;15.75;;;14.00;;
17812;SDS011;9030;50.792;8.320;2023-08-30T06:17:14;17.40;;;14.07;;
17812;SDS011;9030;50.792;8.320;2023-08-30T06:19:42;19.42;;;15.75;;
17812;SDS011;9030;50.792;8.320;2023-08-30T06:22:09;18.77;;;16.88;;
17812;SDS011;9030;50.792;8.320;2023-08-30T06:24:36;20.42;;;16.23;;
17812;SDS011;9030;50.792;8.320;2023-08-30T06:27:03;14.90;;;13.27;;
17812;SDS011;9030;50.792;8.320;2023-08-30T06:29:30;18.92;;;13.68;;
17812;SDS011;9030;50.792;8.320;2023-08-30T06:31:57;18.55;;;12.63;;
17812;SDS011;9030;50.792;8.320;2023-08-30T06:34:24;16.27;;;14.63;;
17812;SDS011;9030;50.792;8.320;2023-08-30T06:36:52;18.85;;;14.10;;
17812;SDS011;9030;50.792;8.320;2023-08-30T06:39:18;18.75;;;15.90;;
17812;SDS011;9030;50.792;8.320;2023-08-30T06:41:45;17.25;;;14.90;;
17812;SDS011;9030;50.792;8.320;2023-08-30T06:44:12;16.77;;;13.88;;
17812;SDS011;9030;50.792;8.320;2023-08-30T06:46:38;14.40;;;12.55;;
17812;SDS011;9030;50.792;8.320;2023-08-30T06:49:05;17.95;;;16.02;;
17812;SDS011;9030;50.792;8.320;2023-08-30T06:51:34;18.13;;;11.60;;
17812;SDS011;9030;50.792;8.320;2023-08-30T06:54:02;13.90;;;12.05;;
17812;SDS011;9030;50.792;8.320;2023-08-30T06:56:29;15.35;;;11.70;;
17812;SDS011;9030;50.792;8.320;2023-08-30T06:58:55;15.98;;;12.50;;
17812;SDS011;9030;50.792;8.320;2023-08-30T07:01:22;13.32;;;11.68;;
17812;SDS011;9030;50.792;8.320;2023-08-30T07:03:49;13.95;;;12.20;;
17812;SDS011;9030;50.792;8.320;2023-08-30T07:06:16;20.05;;;12.45;;
17812;SDS011;9030;50.792;8.320;2023-08-30T07:08:42;14.93;;;11.57;;
17812;SDS011;9030;50.792;8.320;2023-08-30T07:11:10;15.30;;;12.13;;
17812;SDS011;9030;50.792;8.320;2023-08-30T07:13:37;18.30;;;12.90;;
17812;SDS011;9030;50.792;8.320;2023-08-30T07:16:04;20.27;;;13.10;;
17812;SDS011;9030;50.792;8.320;2023-08-30T07:18:30;14.02;;;11.75;;
17812;SDS011;9030;50.792;8.320;2023-08-30T07:20:57;17.77;;;12.13;;
17812;SDS011;9030;50.792;8.320;2023-08-30T07:23:24;17.13;;;12.07;;
17812;SDS011;9030;50.792;8.320;2023-08-30T07:25:51;13.30;;;11.60;;
17812;SDS011;9030;50.792;8.320;2023-08-30T07:28:19;13.10;;;11.57;;
17812;SDS011;9030;50.792;8.320;2023-08-30T07:30:45;14.18;;;10.70;;
17812;SDS011;9030;50.792;8.320;2023-08-30T07:33:12;15.43;;;12.32;;
17812;SDS011;9030;50.792;8.320;2023-08-30T07:35:39;12.60;;;10.13;;
17812;SDS011;9030;50.792;8.320;2023-08-30T07:38:06;16.15;;;11.55;;
17812;SDS011;9030;50.792;8.320;2023-08-30T07:40:32;12.68;;;11.07;;
17812;SDS011;9030;50.792;8.320;2023-08-30T07:42:59;14.45;;;12.85;;
17812;SDS011;9030;50.792;8.320;2023-08-30T07:45:27;14.00;;;9.85;;
17812;SDS011;9030;50.792;8.320;2023-08-30T07:47:54;14.13;;;12.63;;
17812;SDS011;9030;50.792;8.320;2023-08-30T07:50:20;17.83;;;15.95;;
17812;SDS011;9030;50.792;8.320;2023-08-30T07:52:47;19.30;;;13.48;;
17812;SDS011;9030;50.792;8.320;2023-08-30T07:55:14;17.02;;;14.20;;
17812;SDS011;9030;50.792;8.320;2023-08-30T07:57:40;16.20;;;14.48;;
17812;SDS011;9030;50.792;8.320;2023-08-30T08:00:07;15.65;;;13.13;;
17812;SDS011;9030;50.792;8.320;2023-08-30T08:02:36;17.92;;;14.85;;
17812;SDS011;9030;50.792;8.320;2023-08-30T08:05:03;20.15;;;16.00;;
17812;SDS011;9030;50.792;8.320;2023-08-30T08:07:30;19.40;;;16.92;;
17812;SDS011;9030;50.792;8.320;2023-08-30T08:09:57;22.25;;;18.88;;
17812;SDS011;9030;50.792;8.320;2023-08-30T08:12:25;22.08;;;19.98;;
17812;SDS011;9030;50.792;8.320;2023-08-30T08:14:52;19.40;;;17.50;;
17812;SDS011;9030;50.792;8.320;2023-08-30T08:17:19;20.55;;;18.40;;
17812;SDS011;9030;50.792;8.320;2023-08-30T08:19:47;21.80;;;19.58;;
17812;SDS011;9030;50.792;8.320;2023-08-30T08:22:14;21.98;;;19.75;;
17812;SDS011;9030;50.792;8.320;2023-08-30T08:24:41;22.27;;;20.05;;
17812;SDS011;9030;50.792;8.320;2023-08-30T08:27:08;25.92;;;23.20;;
17812;SDS011;9030;50.792;8.320;2023-08-30T08:29:36;25.95;;;23.55;;
17812;SDS011;9030;50.792;8.320;2023-08-30T08:32:03;24.38;;;22.08;;
17812;SDS011;9030;50.792;8.320;2023-08-30T08:34:30;24.58;;;22.05;;
17812;SDS011;9030;50.792;8.320;2023-08-30T08:36:58;25.52;;;22.63;;
17812;SDS011;9030;50.792;8.320;2023-08-30T08:39:24;25.40;;;22.75;;
17812;SDS011;9030;50.792;8.320;2023-08-30T08:41:51;23.10;;;20.80;;
17812;SDS011;9030;50.792;8.320;2023-08-30T08:44:19;27.33;;;24.48;;
17812;SDS011;9030;50.792;8.320;2023-08-30T08:46:48;26.00;;;23.30;;
17812;SDS011;9030;50.792;8.320;2023-08-30T08:49:16;29.88;;;27.02;;
17812;SDS011;9030;50.792;8.320;2023-08-30T08:51:44;31.02;;;28.25;;
17812;SDS011;9030;50.792;8.320;2023-08-30T08:54:12;30.90;;;27.90;;
17812;SDS011;9030;50.792;8.320;2023-08-30T08:56:39;29.90;;;26.98;;
17812;SDS011;9030;50.792;8.320;2023-08-30T08:59:06;28.27;;;25.33;;
17812;SDS011;9030;50.792;8.320;2023-08-30T09:01:34;29.98;;;26.48;;
17812;SDS011;9030;50.792;8.320;2023-08-30T09:04:03;31.98;;;28.70;;
17812;SDS011;9030;50.792;8.320;2023-08-30T09:06:31;29.70;;;26.90;;
17812;SDS011;9030;50.792;8.320;2023-08-30T09:08:58;30.48;;;27.38;;
17812;SDS011;9030;50.792;8.320;2023-08-30T09:11:26;28.88;;;25.95;;
17812;SDS011;9030;50.792;8.320;2023-08-30T09:13:53;30.67;;;27.98;;
17812;SDS011;9030;50.792;8.320;2023-08-30T09:16:20;32.20;;;28.73;;
17812;SDS011;9030;50.792;8.320;2023-08-30T09:18:56;29.50;;;26.70;;
17812;SDS011;9030;50.792;8.320;2023-08-30T09:21:24;27.60;;;24.90;;
17812;SDS011;9030;50.792;8.320;2023-08-30T09:23:56;25.02;;;22.70;;
17812;SDS011;9030;50.792;8.320;2023-08-30T09:26:23;24.27;;;22.17;;
17812;SDS011;9030;50.792;8.320;2023-08-30T09:28:52;21.75;;;19.60;;
17812;SDS011;9030;50.792;8.320;2023-08-30T09:31:18;19.95;;;18.10;;
17812;SDS011;9030;50.792;8.320;2023-08-30T09:33:45;18.92;;;16.98;;
17812;SDS011;9030;50.792;8.320;2023-08-30T09:36:13;17.90;;;16.00;;
17812;SDS011;9030;50.792;8.320;2023-08-30T09:38:40;17.95;;;16.05;;
17812;SDS011;9030;50.792;8.320;2023-08-30T09:41:13;17.05;;;14.57;;
17812;SDS011;9030;50.792;8.320;2023-08-30T09:43:41;17.40;;;14.23;;
17812;SDS011;9030;50.792;8.320;2023-08-30T09:46:10;16.38;;;14.68;;
17812;SDS011;9030;50.792;8.320;2023-08-30T09:48:37;18.52;;;14.57;;
17812;SDS011;9030;50.792;8.320;2023-08-30T09:51:05;16.95;;;13.35;;
17812;SDS011;9030;50.792;8.320;2023-08-30T09:53:37;14.70;;;13.07;;
17812;SDS011;9030;50.792;8.320;2023-08-30T09:56:08;15.32;;;11.18;;
17812;SDS011;9030;50.792;8.320;2023-08-30T09:58:38;16.42;;;12.02;;
17812;SDS011;9030;50.792;8.320;2023-08-30T10:01:07;15.95;;;11.10;;
17812;SDS011;9030;50.792;8.320;2023-08-30T10:03:36;14.05;;;11.02;;
17812;SDS011;9030;50.792;8.320;2023-08-30T10:06:03;14.43;;;11.90;;
17812;SDS011;9030;50.792;8.320;2023-08-30T10:08:30;12.90;;;10.05;;
17812;SDS011;9030;50.792;8.320;2023-08-30T10:11:01;12.68;;;9.38;;
17812;SDS011;9030;50.792;8.320;2023-08-30T10:13:29;11.85;;;8.73;;
17812;SDS011;9030;50.792;8.320;2023-08-30T10:15:58;10.50;;;7.60;;
17812;SDS011;9030;50.792;8.320;2023-08-30T10:18:28;11.95;;;8.40;;
17812;SDS011;9030;50.792;8.320;2023-08-30T10:20:59;13.73;;;8.65;;
17812;SDS011;9030;50.792;8.320;2023-08-30T10:23:26;11.23;;;7.00;;
17812;SDS011;9030;50.792;8.320;2023-08-30T10:25:54;7.53;;;5.25;;
17812;SDS011;9030;50.792;8.320;2023-08-30T10:28:22;10.20;;;5.18;;
17812;SDS011;9030;50.792;8.320;2023-08-30T10:30:50;10.77;;;4.50;;
17812;SDS011;9030;50.792;8.320;2023-08-30T10:33:17;8.50;;;4.57;;
17812;SDS011;9030;50.792;8.320;2023-08-30T10:35:49;8.32;;;5.25;;
17812;SDS011;9030;50.792;8.320;2023-08-30T10:38:25;8.98;;;5.70;;
17812;SDS011;9030;50.792;8.320;2023-08-30T10:40:53;7.03;;;4.32;;
17812;SDS011;9030;50.792;8.320;2023-08-30T10:43:28;7.47;;;4.22;;
17812;SDS011;9030;50.792;8.320;2023-08-30T10:45:58;8.05;;;4.10;;
17812;SDS011;9030;50.792;8.320;2023-08-30T10:48:33;12.25;;;5.15;;
17812;SDS011;9030;50.792;8.320;2023-08-30T10:51:00;8.98;;;4.65;;
17812;SDS011;9030;50.792;8.320;2023-08-30T10:53:30;8.57;;;5.32;;
17812;SDS011;9030;50.792;8.320;2023-08-30T10:56:04;6.70;;;4.47;;
17812;SDS011;9030;50.792;8.320;2023-08-30T10:58:38;10.43;;;5.20;;
17812;SDS011;9030;50.792;8.320;2023-08-30T11:01:07;8.30;;;5.13;;
17812;SDS011;9030;50.792;8.320;2023-08-30T11:03:37;10.98;;;5.97;;
17812;SDS011;9030;50.792;8.320;2023-08-30T11:06:03;9.02;;;5.55;;
17812;SDS011;9030;50.792;8.320;2023-08-30T11:08:32;8.00;;;4.82;;
17812;SDS011;9030;50.792;8.320;2023-08-30T11:11:01;10.25;;;5.50;;
17812;SDS011;9030;50.792;8.320;2023-08-30T11:13:29;7.00;;;4.53;;
17812;SDS011;9030;50.792;8.320;2023-08-30T11:15:59;13.60;;;5.47;;
17812;SDS011;9030;50.792;8.320;2023-08-30T11:18:27;6.88;;;4.45;;
17812;SDS011;9030;50.792;8.320;2023-08-30T11:20:57;7.97;;;4.40;;
17812;SDS011;9030;50.792;8.320;2023-08-30T11:23:25;8.50;;;4.45;;
17812;SDS011;9030;50.792;8.320;2023-08-30T11:25:54;9.43;;;3.72;;
17812;SDS011;9030;50.792;8.320;2023-08-30T11:28:23;8.50;;;4.35;;
17812;SDS011;9030;50.792;8.320;2023-08-30T11:30:52;10.55;;;3.92;;
17812;SDS011;9030;50.792;8.320;2023-08-30T11:33:19;7.97;;;3.78;;
17812;SDS011;9030;50.792;8.320;2023-08-30T11:35:47;6.00;;;3.28;;
17812;SDS011;9030;50.792;8.320;2023-08-30T11:38:15;7.72;;;4.28;;
17812;SDS011;9030;50.792;8.320;2023-08-30T11:40:43;6.80;;;4.28;;
17812;SDS011;9030;50.792;8.320;2023-08-30T11:43:12;7.63;;;4.18;;
17812;SDS011;9030;50.792;8.320;2023-08-30T11:45:38;8.50;;;4.18;;
17812;SDS011;9030;50.792;8.320;2023-08-30T11:48:05;9.02;;;4.45;;
17812;SDS011;9030;50.792;8.320;2023-08-30T11:50:33;7.97;;;4.28;;
17812;SDS011;9030;50.792;8.320;2023-08-30T11:53:01;8.63;;;3.92;;
17812;SDS011;9030;50.792;8.320;2023-08-30T11:55:28;6.80;;;4.13;;
17812;SDS011;9030;50.792;8.320;2023-08-30T11:57:56;6.50;;;3.92;;
17812;SDS011;9030;50.792;8.320;2023-08-30T12:00:24;7.40;;;4.30;;
17812;SDS011;9030;50.792;8.320;2023-08-30T12:02:51;9.23;;;4.38;;
17812;SDS011;9030;50.792;8.320;2023-08-30T12:05:18;6.88;;;3.75;;
17812;SDS011;9030;50.792;8.320;2023-08-30T12:07:45;11.60;;;3.80;;
17812;SDS011;9030;50.792;8.320;2023-08-30T12:10:12;10.30;;;4.22;;
17812;SDS011;9030;50.792;8.320;2023-08-30T12:12:43;7.38;;;3.90;;
17812;SDS011;9030;50.792;8.320;2023-08-30T12:15:11;6.90;;;4.18;;
17812;SDS011;9030;50.792;8.320;2023-08-30T12:17:40;7.85;;;4.20;;
17812;SDS011;9030;50.792;8.320;2023-08-30T12:20:14;7.63;;;4.50;;
17812;SDS011;9030;50.792;8.320;2023-08-30T12:22:42;7.72;;;3.90;;
17812;SDS011;9030;50.792;8.320;2023-08-30T12:25:15;9.65;;;4.32;;
17812;SDS011;9030;50.792;8.320;2023-08-30T12:27:42;10.20;;;4.20;;
17812;SDS011;9030;50.792;8.320;2023-08-30T12:30:09;6.80;;;3.75;;
17812;SDS011;9030;50.792;8.320;2023-08-30T12:32:36;8.93;;;4.40;;
17812;SDS011;9030;50.792;8.320;2023-08-30T12:35:05;9.23;;;4.75;;
17812;SDS011;9030;50.792;8.320;2023-08-30T12:37:32;12.10;;;5.25;;
17812;SDS011;9030;50.792;8.320;2023-08-30T12:39:58;9.15;;;4.28;;
17812;SDS011;9030;50.792;8.320;2023-08-30T12:42:25;8.57;;;4.88;;
17812;SDS011;9030;50.792;8.320;2023-08-30T12:44:52;12.40;;;5.43;;
17812;SDS011;9030;50.792;8.320;2023-08-30T12:47:19;10.18;;;5.13;;
17812;SDS011;9030;50.792;8.320;2023-08-30T12:49:46;10.57;;;5.32;;
17812;SDS011;9030;50.792;8.320;2023-08-30T12:52:14;10.65;;;5.00;;
17812;SDS011;9030;50.792;8.320;2023-08-30T12:54:41;10.20;;;4.75;;
17812;SDS011;9030;50.792;8.320;2023-08-30T12:57:07;9.05;;;5.32;;
17812;SDS011;9030;50.792;8.320;2023-08-30T12:59:34;8.70;;;4.53;;
17812;SDS011;9030;50.792;8.320;2023-08-30T13:02:01;10.65;;;5.07;;
17812;SDS011;9030;50.792;8.320;2023-08-30T13:04:28;11.25;;;4.63;;
17812;SDS011;9030;50.792;8.320;2023-08-30T13:06:54;8.25;;;4.80;;
17812;SDS011;9030;50.792;8.320;2023-08-30T13:09:22;8.95;;;4.68;;
17812;SDS011;9030;50.792;8.320;2023-08-30T13:11:49;7.53;;;3.92;;
17812;SDS011;9030;50.792;8.320;2023-08-30T13:14:16;9.32;;;4.15;;
17812;SDS011;9030;50.792;8.320;2023-08-30T13:16:42;11.27;;;5.35;;
17812;SDS011;9030;50.792;8.320;2023-08-30T13:19:09;9.45;;;4.93;;
17812;SDS011;9030;50.792;8.320;2023-08-30T13:21:36;10.20;;;4.53;;
17812;SDS011;9030;50.792;8.320;2023-08-30T13:24:03;8.95;;;3.10;;
17812;SDS011;9030;50.792;8.320;2023-08-30T13:26:31;5.40;;;2.95;;
17812;SDS011;9030;50.792;8.320;2023-08-30T13:28:58;7.78;;;3.15;;
17812;SDS011;9030;50.792;8.320;2023-08-30T13:31:27;6.68;;;3.22;;
17812;SDS011;9030;50.792;8.320;2023-08-30T13:33:54;4.78;;;3.03;;
17812;SDS011;9030;50.792;8.320;2023-08-30T13:36:20;5.55;;;2.83;;
17812;SDS011;9030;50.792;8.320;2023-08-30T13:38:47;9.90;;;3.03;;
17812;SDS011;9030;50.792;8.320;2023-08-30T13:41:14;7.22;;;3.45;;
17812;SDS011;9030;50.792;8.320;2023-08-30T13:43:42;6.28;;;3.10;;
17812;SDS011;9030;50.792;8.320;2023-08-30T13:46:09;7.10;;;3.63;;
17812;SDS011;9030;50.792;8.320;2023-08-30T13:48:35;5.63;;;3.17;;
17812;SDS011;9030;50.792;8.320;2023-08-30T13:51:02;8.38;;;4.00;;
17812;SDS011;9030;50.792;8.320;2023-08-30T13:53:29;10.13;;;4.35;;
17812;SDS011;9030;50.792;8.320;2023-08-30T13:55:56;8.50;;;3.72;;
17812;SDS011;9030;50.792;8.320;2023-08-30T13:58:23;6.75;;;4.15;;
17812;SDS011;9030;50.792;8.320;2023-08-30T14:00:51;8.15;;;3.95;;
17812;SDS011;9030;50.792;8.320;2023-08-30T14:03:17;7.82;;;3.78;;
17812;SDS011;9030;50.792;8.320;2023-08-30T14:05:44;7.55;;;3.63;;
17812;SDS011;9030;50.792;8.320;2023-08-30T14:08:11;14.38;;;5.30;;
17812;SDS011;9030;50.792;8.320;2023-08-30T14:10:37;13.77;;;4.20;;
17812;SDS011;9030;50.792;8.320;2023-08-30T14:13:04;7.60;;;4.15;;
17812;SDS011;9030;50.792;8.320;2023-08-30T14:15:31;8.25;;;4.20;;
17812;SDS011;9030;50.792;8.320;2023-08-30T14:17:59;10.88;;;4.90;;
17812;SDS011;9030;50.792;8.320;2023-08-30T14:20:27;9.95;;;5.07;;
17812;SDS011;9030;50.792;8.320;2023-08-30T14:22:54;8.80;;;4.15;;
17812;SDS011;9030;50.792;8.320;2023-08-30T14:25:20;10.85;;;4.18;;
17812;SDS011;9030;50.792;8.320;2023-08-30T14:27:47;8.35;;;4.32;;
17812;SDS011;9030;50.792;8.320;2023-08-30T14:30:14;10.70;;;4.75;;
17812;SDS011;9030;50.792;8.320;2023-08-30T14:32:41;10.20;;;4.38;;
17812;SDS011;9030;50.792;8.320;2023-08-30T14:35:10;11.93;;;4.43;;
17812;SDS011;9030;50.792;8.320;2023-08-30T14:37:37;10.07;;;4.63;;
17812;SDS011;9030;50.792;8.320;2023-08-30T14:40:05;6.95;;;3.78;;
17812;SDS011;9030;50.792;8.320;2023-08-30T14:42:32;10.32;;;4.30;;
17812;SDS011;9030;50.792;8.320;2023-08-30T14:44:59;9.55;;;4.45;;